createdAt,value
2023-05-06T00:03:09.366Z,0
2023-05-06T00:07:52.674Z,0
2023-05-06T00:12:34.990Z,0
2023-05-06T00:17:17.713Z,0
2023-05-06T00:22:00.520Z,0
2023-05-06T00:26:43.229Z,0
2023-05-06T00:31:25.251Z,0
2023-05-06T00:36:07.964Z,0
2023-05-06T00:40:50.677Z,0
2023-05-06T00:45:33.396Z,0
2023-05-06T00:50:16.100Z,0
2023-05-06T00:54:58.814Z,0
2023-05-06T00:59:41.630Z,0
2023-05-06T01:04:24.350Z,0
2023-05-06T01:09:07.067Z,0
2023-05-06T01:13:49.778Z,0
2023-05-06T01:18:32.496Z,0
2023-05-06T01:23:15.215Z,0
2023-05-06T01:27:58.023Z,0
2023-05-06T01:32:40.054Z,0
2023-05-06T01:37:22.757Z,0
2023-05-06T01:42:05.478Z,0
2023-05-06T01:46:48.184Z,0
2023-05-06T01:51:30.903Z,0
2023-05-06T02:00:56.426Z,0
2023-05-06T02:05:39.153Z,0
2023-05-06T02:10:21.858Z,0
2023-05-06T02:15:04.571Z,0
2023-05-06T02:24:29.995Z,0
2023-05-06T02:29:12.819Z,0
2023-05-06T02:33:55.538Z,0
2023-05-06T02:38:38.245Z,0
2023-05-06T02:48:02.979Z,0
2023-05-06T02:52:45.685Z,0
2023-05-06T02:57:28.400Z,0
2023-05-06T03:02:11.118Z,0
2023-05-06T03:11:36.646Z,0
2023-05-06T03:16:19.360Z,0
2023-05-06T03:21:02.070Z,0
2023-05-06T03:30:27.510Z,0
2023-05-06T03:35:10.313Z,0
2023-05-06T03:39:53.038Z,0
2023-05-06T03:44:35.749Z,0
2023-05-06T03:49:18.459Z,0
2023-05-06T03:54:01.177Z,0
2023-05-06T03:58:43.998Z,0
2023-05-06T04:03:26.702Z,5
2023-05-06T04:08:09.409Z,11
2023-05-06T04:12:52.127Z,16
2023-05-06T04:22:17.557Z,28
2023-05-06T04:27:00.378Z,39
2023-05-06T04:31:43.087Z,39
2023-05-06T04:36:25.105Z,39
2023-05-06T04:41:07.828Z,33
2023-05-06T04:45:50.536Z,56
2023-05-06T04:50:33.358Z,50
2023-05-06T04:55:16.065Z,61
2023-05-06T04:59:58.812Z,67
2023-05-06T05:04:41.490Z,106
2023-05-06T05:09:24.199Z,129
2023-05-06T05:14:06.924Z,112
2023-05-06T05:18:49.732Z,123
2023-05-06T05:23:32.442Z,151
2023-05-06T05:28:15.114Z,180
2023-05-06T05:32:57.925Z,180
2023-05-06T05:37:40.640Z,185
2023-05-06T05:42:23.360Z,146
2023-05-06T05:47:05.476Z,163
2023-05-06T05:51:47.472Z,253
2023-05-06T05:56:30.190Z,174
2023-05-06T06:01:12.899Z,208
2023-05-06T06:05:55.642Z,213
2023-05-06T06:10:38.331Z,191
2023-05-06T06:15:21.049Z,241
2023-05-06T06:20:03.849Z,151
2023-05-06T06:24:46.571Z,236
2023-05-06T06:29:29.287Z,320
2023-05-06T06:34:12.014Z,275
2023-05-06T06:38:54.729Z,275
2023-05-06T06:43:37.439Z,264
2023-05-06T06:48:20.243Z,523
2023-05-06T06:53:02.962Z,534
2023-05-06T06:57:45.677Z,382
2023-05-06T07:02:28.391Z,472
2023-05-06T07:07:11.118Z,438
2023-05-06T07:11:53.819Z,450
2023-05-06T07:16:36.636Z,545
2023-05-06T07:21:19.335Z,438
2023-05-06T07:30:44.776Z,523
2023-05-06T07:35:27.489Z,455
2023-05-06T07:40:10.211Z,1243
2023-05-06T07:49:35.732Z,568
2023-05-06T07:54:18.454Z,984
2023-05-06T07:59:01.168Z,759
2023-05-06T08:03:43.877Z,866
2023-05-06T08:08:26.596Z,832
2023-05-06T08:13:09.318Z,1383
2023-05-06T08:17:52.131Z,742
2023-05-06T08:22:34.854Z,354
2023-05-06T08:27:17.561Z,258
2023-05-06T08:32:00.272Z,405
2023-05-06T08:36:42.991Z,961
2023-05-06T08:46:09.028Z,540
2023-05-06T08:50:52.331Z,624
2023-05-06T08:55:35.555Z,849
2023-05-06T09:00:18.859Z,1715
2023-05-06T09:05:02.099Z,1203
2023-05-06T09:09:45.401Z,1085
2023-05-06T09:19:11.932Z,1777
2023-05-06T09:23:55.145Z,933
2023-05-06T09:28:37.960Z,1569
2023-05-06T09:38:04.505Z,551
2023-05-06T09:42:47.808Z,663
2023-05-06T09:47:31.022Z,1957
2023-05-06T10:01:40.872Z,877
2023-05-06T10:11:07.410Z,1271
2023-05-06T10:20:33.944Z,2311
2023-05-06T10:34:43.677Z,821
2023-05-06T10:39:27.027Z,2086
2023-05-06T10:48:53.523Z,2047
2023-05-06T10:58:20.057Z,866
2023-05-06T11:03:03.274Z,2171
2023-05-06T11:07:46.586Z,1839
2023-05-06T11:12:29.797Z,1698
2023-05-06T11:17:13.125Z,1417
2023-05-06T11:21:56.333Z,2075
2023-05-06T11:26:39.355Z,2340
2023-05-06T11:31:22.658Z,1951
2023-05-06T11:36:05.872Z,2418
2023-05-06T11:45:32.408Z,1316
2023-05-06T11:50:15.731Z,1220
2023-05-06T11:59:42.250Z,2311
2023-05-06T12:04:25.470Z,691
2023-05-06T12:09:08.782Z,646
2023-05-06T12:13:52.011Z,855
2023-05-06T12:23:18.535Z,2671
2023-05-06T12:32:45.075Z,1029
2023-05-06T12:42:11.637Z,720
2023-05-06T12:46:54.915Z,2002
2023-05-06T12:51:38.124Z,804
2023-05-06T12:56:21.454Z,3318
2023-05-06T13:01:04.681Z,3301
2023-05-06T13:05:47.978Z,3026
2023-05-06T13:10:31.199Z,2649
2023-05-06T13:15:14.526Z,1541
2023-05-06T13:19:57.733Z,680
2023-05-06T13:29:26.162Z,545
2023-05-06T13:34:10.284Z,596
2023-05-06T13:43:38.621Z,511
2023-05-06T13:48:22.930Z,376
2023-05-06T13:53:07.150Z,450
2023-05-06T13:57:51.267Z,489
2023-05-06T14:02:35.486Z,388
2023-05-06T14:07:19.604Z,292
2023-05-06T14:16:48.047Z,303
2023-05-06T14:21:32.171Z,444
2023-05-06T14:26:16.376Z,455
2023-05-06T14:31:00.486Z,585
2023-05-06T14:35:44.705Z,781
2023-05-06T14:40:28.823Z,900
2023-05-06T14:45:13.046Z,2345
2023-05-06T14:49:57.199Z,714
2023-05-06T14:54:41.580Z,652
2023-05-06T14:59:25.692Z,613
2023-05-06T15:08:54.222Z,725
2023-05-06T15:13:38.348Z,753
2023-05-06T15:23:06.681Z,748
2023-05-06T15:27:50.899Z,810
2023-05-06T15:32:35.012Z,1693
2023-05-06T15:37:19.238Z,1681
2023-05-06T15:42:03.450Z,1721
2023-05-06T15:46:47.569Z,1535
2023-05-06T15:51:31.783Z,1479
2023-05-06T16:01:00.122Z,1445
2023-05-06T16:10:28.470Z,573
2023-05-06T16:15:12.569Z,343
2023-05-06T16:19:56.289Z,320
2023-05-06T16:24:39.500Z,303
2023-05-06T16:34:06.029Z,247
2023-05-06T16:38:49.358Z,230
2023-05-06T16:43:32.595Z,202
2023-05-06T16:48:15.887Z,191
2023-05-06T16:52:59.103Z,168
2023-05-06T17:07:08.446Z,106
2023-05-06T17:11:51.774Z,95
2023-05-06T17:16:34.985Z,90
2023-05-06T17:21:18.297Z,101
2023-05-06T17:26:01.787Z,106
2023-05-06T17:40:11.507Z,84
2023-05-06T17:44:54.707Z,78
2023-05-06T17:54:21.245Z,56
2023-05-06T17:59:04.510Z,45
2023-05-06T18:03:47.787Z,39
2023-05-06T18:13:14.166Z,28
2023-05-06T18:17:57.700Z,28
2023-05-06T18:27:24.185Z,11
2023-05-06T18:32:06.901Z,11
2023-05-06T18:36:50.194Z,5
2023-05-06T18:46:16.818Z,0
2023-05-06T18:51:00.093Z,0
2023-05-06T18:55:43.255Z,0
2023-05-06T19:05:09.749Z,0
2023-05-06T19:09:53.001Z,0
2023-05-06T19:14:36.334Z,0
2023-05-06T19:24:02.906Z,0
2023-05-06T19:28:46.174Z,0
2023-05-06T19:38:12.726Z,0
2023-05-06T19:42:55.766Z,0
2023-05-06T19:47:39.246Z,0
2023-05-06T19:52:22.456Z,0
2023-05-06T19:57:05.771Z,0
2023-05-06T20:01:48.999Z,0
2023-05-06T20:06:32.317Z,0
2023-05-06T20:15:58.884Z,0
2023-05-06T20:20:42.118Z,0
2023-05-06T20:25:25.392Z,0
2023-05-06T20:34:51.334Z,0
2023-05-06T20:39:34.704Z,0
2023-05-06T20:49:01.180Z,0
2023-05-06T20:53:44.612Z,0
2023-05-06T20:58:27.806Z,0
2023-05-06T21:07:54.291Z,0
2023-05-06T21:12:37.569Z,0
2023-05-06T21:17:20.666Z,0
2023-05-06T21:26:47.190Z,0
2023-05-06T21:31:30.520Z,0
2023-05-06T21:36:13.840Z,0
2023-05-06T21:45:40.470Z,0
2023-05-06T21:50:23.720Z,0
2023-05-06T21:59:50.290Z,0
2023-05-06T22:04:33.504Z,0
2023-05-06T22:09:16.811Z,0
2023-05-06T22:18:42.961Z,0
2023-05-06T22:23:26.229Z,0
2023-05-06T22:28:09.159Z,0
2023-05-06T22:37:35.675Z,0
2023-05-06T22:42:18.896Z,0
2023-05-06T22:47:02.212Z,0
2023-05-06T22:56:28.750Z,0
2023-05-06T23:01:12.017Z,0
2023-05-06T23:10:38.495Z,0
2023-05-06T23:15:21.797Z,0
2023-05-06T23:20:05.067Z,0
2023-05-06T23:29:31.470Z,0
2023-05-06T23:34:14.761Z,0
2023-05-06T23:38:58.056Z,0
2023-05-06T23:48:24.453Z,0
2023-05-06T23:53:07.787Z,0
2023-05-06T23:57:50.983Z,0
